Time;durP1;ratioP1;P1;durP2;ratioP2;P2;SDS_P1;SDS_P2;PMS_P1;PMS_P2;Temp;Humidity;BMP_temperature;BMP_pressure;BME280_temperature;BME280_humidity;BME280_pressure;Samples;Min_cycle;Max_cycle;Signal;HPM_P1;HPM_P2
2022/11/20 00:00:38;;;;;;;3.35;2.78;;;4.60;99.90;;;;;;5011053;28;20242;-72
2022/11/20 00:03:04;;;;;;;2.35;2.10;;;4.50;99.90;;;;;;5012454;28;20214;-72
2022/11/20 00:05:34;;;;;;;3.78;2.97;;;4.50;99.90;;;;;;5012120;28;20670;-72
2022/11/20 00:08:01;;;;;;;5.07;2.80;;;4.50;99.90;;;;;;5012290;28;20595;-72
2022/11/20 00:10:28;;;;;;;2.38;2.10;;;4.50;99.90;;;;;;5010773;28;20738;-72
2022/11/20 00:12:54;;;;;;;3.15;2.85;;;4.50;99.90;;;;;;5011461;28;20231;-70
2022/11/20 00:15:21;;;;;;;2.33;2.13;;;4.50;99.90;;;;;;5011445;28;20558;-71
2022/11/20 00:17:48;;;;;;;2.88;2.58;;;4.50;99.90;;;;;;5011497;28;20207;-72
2022/11/20 00:20:15;;;;;;;4.28;2.92;;;4.40;99.90;;;;;;5010603;28;20230;-70
2022/11/20 00:22:43;;;;;;;3.33;2.60;;;4.40;99.90;;;;;;5011419;28;20206;-72
2022/11/20 00:25:11;;;;;;;3.75;2.63;;;4.40;99.90;;;;;;5011118;28;20206;-71
2022/11/20 00:27:37;;;;;;;3.70;2.67;;;4.40;99.90;;;;;;5011157;28;20207;-70
2022/11/20 00:30:05;;;;;;;2.97;2.47;;;4.40;99.90;;;;;;5011010;28;20223;-72
2022/11/20 00:32:32;;;;;;;3.72;2.80;;;4.40;99.90;;;;;;5010831;28;20265;-70
2022/11/20 00:34:58;;;;;;;2.95;2.25;;;4.40;99.90;;;;;;5011292;28;20218;-71
2022/11/20 00:37:25;;;;;;;3.78;2.50;;;4.40;99.90;;;;;;5010753;28;20230;-72
2022/11/20 00:39:53;;;;;;;3.58;3.05;;;4.40;99.90;;;;;;5011081;28;20562;-71
2022/11/20 00:42:20;;;;;;;3.58;3.00;;;4.40;99.90;;;;;;5010080;28;20203;-72
2022/11/20 00:44:46;;;;;;;2.50;2.28;;;4.40;99.90;;;;;;5011049;28;20210;-70
2022/11/20 00:47:13;;;;;;;4.20;2.85;;;4.40;99.90;;;;;;5010873;28;20215;-72
2022/11/20 00:49:40;;;;;;;2.88;2.30;;;4.50;99.90;;;;;;5010790;28;20199;-72
2022/11/20 00:52:07;;;;;;;4.25;2.35;;;4.50;99.90;;;;;;5010438;28;20238;-72
2022/11/20 00:54:33;;;;;;;2.85;2.65;;;4.50;99.90;;;;;;5010831;28;20207;-71
2022/11/20 00:57:01;;;;;;;2.75;2.50;;;4.50;99.90;;;;;;5011103;28;20573;-72
2022/11/20 00:59:28;;;;;;;3.15;2.85;;;4.50;99.90;;;;;;5010581;28;20204;-72
2022/11/20 01:01:55;;;;;;;3.35;2.45;;;4.50;99.90;;;;;;5010694;28;20250;-72
2022/11/20 01:04:22;;;;;;;2.92;2.65;;;4.50;99.90;;;;;;5010764;28;20199;-71
2022/11/20 01:06:48;;;;;;;3.08;2.13;;;4.50;99.90;;;;;;5010883;28;20203;-71
2022/11/20 01:09:15;;;;;;;2.60;2.40;;;4.50;99.90;;;;;;5010373;28;20682;-72
2022/11/20 01:11:44;;;;;;;2.55;2.35;;;4.50;99.90;;;;;;5011487;28;20227;-71
2022/11/20 01:14:14;;;;;;;2.85;2.20;;;4.40;99.90;;;;;;5014681;28;20206;-72
2022/11/20 01:16:43;;;;;;;3.45;2.50;;;4.40;99.90;;;;;;5014093;28;20580;-71
2022/11/20 01:19:13;;;;;;;4.30;2.40;;;4.40;99.90;;;;;;5014702;28;20207;-72
2022/11/20 01:21:42;;;;;;;3.17;2.15;;;4.30;99.90;;;;;;5013611;28;20226;-71
2022/11/20 01:24:12;;;;;;;2.15;1.95;;;4.30;99.90;;;;;;5014550;28;20216;-70
2022/11/20 01:26:40;;;;;;;4.85;2.42;;;4.30;99.90;;;;;;5013921;28;20207;-71
2022/11/20 01:29:11;;;;;;;5.32;2.85;;;4.20;99.90;;;;;;5014357;28;20203;-71
2022/11/20 01:31:39;;;;;;;2.88;2.25;;;4.10;99.90;;;;;;5013334;28;20225;-71
2022/11/20 01:34:09;;;;;;;3.35;2.67;;;4.10;99.90;;;;;;5014596;28;20210;-71
2022/11/20 01:36:37;;;;;;;2.50;2.25;;;4.10;99.90;;;;;;5014553;28;20682;-71
2022/11/20 01:39:06;;;;;;;4.95;2.47;;;4.00;99.90;;;;;;5014172;28;20207;-71
2022/11/20 01:44:21;;;;;;;2.60;2.28;;;3.90;99.90;;;;;;5013445;28;20218;-71
2022/11/20 01:46:56;;;;;;;2.38;2.13;;;3.90;99.90;;;;;;5014108;28;20203;-72
2022/11/20 01:49:25;;;;;;;3.20;2.13;;;3.80;99.90;;;;;;5013535;28;20202;-71
2022/11/20 01:51:56;;;;;;;3.38;1.92;;;3.80;99.90;;;;;;5013257;28;20231;-71
2022/11/20 01:54:29;;;;;;;5.78;2.42;;;3.70;99.90;;;;;;5013935;28;20486;-71
2022/11/20 01:56:58;;;;;;;3.78;2.72;;;3.70;99.90;;;;;;5014846;28;20211;-72
2022/11/20 01:59:26;;;;;;;1.73;1.63;;;3.70;99.90;;;;;;5014278;28;20701;-72
2022/11/20 02:01:55;;;;;;;2.58;1.95;;;3.60;99.90;;;;;;5013486;28;20219;-72
2022/11/20 02:04:22;;;;;;;2.30;1.85;;;3.60;99.90;;;;;;5014140;28;20203;-70
2022/11/20 02:06:52;;;;;;;2.72;2.45;;;3.60;99.90;;;;;;5014220;28;20685;-72
2022/11/20 02:09:19;;;;;;;2.08;1.77;;;3.60;99.90;;;;;;5013866;28;20257;-71
2022/11/20 02:11:46;;;;;;;4.60;1.95;;;3.60;99.90;;;;;;5012625;28;20235;-71
2022/11/20 02:14:12;;;;;;;3.47;2.40;;;3.50;99.90;;;;;;5013735;28;20234;-70
2022/11/20 02:16:44;;;;;;;1.73;1.63;;;3.50;99.90;;;;;;5013571;28;20234;-70
2022/11/20 02:19:22;;;;;;;1.98;1.77;;;3.50;99.90;;;;;;5013296;28;20462;-71
2022/11/20 02:21:57;;;;;;;2.30;1.95;;;3.40;99.90;;;;;;5012421;28;20219;-71
2022/11/20 02:24:25;;;;;;;2.10;1.90;;;3.40;99.90;;;;;;5013164;28;20310;-71
2022/11/20 02:26:55;;;;;;;4.10;2.65;;;3.40;99.90;;;;;;5013567;28;20203;-71
2022/11/20 02:29:26;;;;;;;2.53;2.33;;;3.40;99.90;;;;;;5012834;28;20276;-71
2022/11/20 02:31:56;;;;;;;1.98;1.85;;;3.40;99.90;;;;;;5012773;28;20233;-71
2022/11/20 02:34:22;;;;;;;4.00;2.45;;;3.40;99.90;;;;;;5012787;28;20210;-71
2022/11/20 02:36:50;;;;;;;3.45;2.20;;;3.40;99.90;;;;;;5013180;28;20218;-71
2022/11/20 02:39:17;;;;;;;7.32;2.63;;;3.40;99.90;;;;;;5012800;28;20207;-71
2022/11/20 02:41:45;;;;;;;2.85;2.35;;;3.40;99.90;;;;;;5012160;28;20300;-71
2022/11/20 02:44:12;;;;;;;3.05;2.30;;;3.50;99.90;;;;;;5012976;28;20210;-71
2022/11/20 02:46:39;;;;;;;4.78;2.85;;;3.50;99.90;;;;;;5012614;28;20203;-70
2022/11/20 02:49:06;;;;;;;3.15;2.53;;;3.50;99.90;;;;;;5012911;28;20207;-71
2022/11/20 02:51:33;;;;;;;3.35;2.50;;;3.60;99.90;;;;;;5011574;28;20223;-71
2022/11/20 02:54:00;;;;;;;3.55;2.85;;;3.60;99.90;;;;;;5012848;28;20603;-71
2022/11/20 02:56:27;;;;;;;4.43;3.00;;;3.60;99.90;;;;;;5012256;28;20214;-71
2022/11/20 02:58:55;;;;;;;2.95;2.65;;;3.70;99.90;;;;;;5012834;28;20203;-71
2022/11/20 03:01:22;;;;;;;4.03;2.70;;;3.70;99.90;;;;;;5011938;28;20223;-71
2022/11/20 03:03:49;;;;;;;3.63;2.60;;;3.70;99.90;;;;;;5012882;28;20208;-71
2022/11/20 03:06:16;;;;;;;3.20;2.90;;;3.80;99.90;;;;;;5011853;28;20203;-71
2022/11/20 03:08:43;;;;;;;3.22;2.78;;;3.80;99.90;;;;;;5012143;28;20199;-71
2022/11/20 03:11:10;;;;;;;2.65;2.45;;;3.80;99.90;;;;;;5012306;28;20241;-71
2022/11/20 03:13:37;;;;;;;4.70;3.33;;;3.90;99.90;;;;;;5012456;28;20215;-71
2022/11/20 03:16:11;;;;;;;4.82;3.20;;;3.90;99.90;;;;;;5012971;28;20206;-71
2022/11/20 03:18:38;;;;;;;3.20;2.75;;;4.00;99.90;;;;;;5012855;28;20198;-71
2022/11/20 03:21:05;;;;;;;3.78;2.78;;;4.00;99.90;;;;;;5012255;28;20734;-70
2022/11/20 03:23:33;;;;;;;2.35;2.15;;;4.00;99.90;;;;;;5013071;28;20214;-71
2022/11/20 03:26:10;;;;;;;2.45;2.25;;;4.10;99.90;;;;;;5012634;28;20203;-71
2022/11/20 03:28:37;;;;;;;2.90;2.50;;;4.00;99.90;;;;;;5012811;28;20713;-71
2022/11/20 03:31:10;;;;;;;3.70;2.90;;;4.00;99.90;;;;;;5011742;28;20223;-71
2022/11/20 03:33:37;;;;;;;2.85;2.63;;;4.00;99.90;;;;;;5012527;28;20220;-71
2022/11/20 03:36:05;;;;;;;3.38;3.08;;;3.90;99.90;;;;;;5012703;28;20203;-70
2022/11/20 03:38:32;;;;;;;3.10;2.72;;;3.90;99.90;;;;;;5012510;28;20211;-70
2022/11/20 03:41:00;;;;;;;3.42;2.55;;;3.80;99.90;;;;;;5012126;28;20219;-71
2022/11/20 03:43:27;;;;;;;3.47;2.35;;;3.80;99.90;;;;;;5012332;28;20226;-71
2022/11/20 03:45:54;;;;;;;3.50;2.72;;;3.70;99.90;;;;;;5012771;28;20566;-70
2022/11/20 03:48:22;;;;;;;3.20;2.90;;;3.70;99.90;;;;;;5012632;28;20206;-70
2022/11/20 03:50:49;;;;;;;3.25;2.33;;;3.70;99.90;;;;;;5011989;28;20228;-70
2022/11/20 03:53:16;;;;;;;3.33;2.88;;;3.60;99.90;;;;;;5012540;28;20227;-70
2022/11/20 03:55:43;;;;;;;3.67;2.70;;;3.60;99.90;;;;;;5012741;28;20202;-70
2022/11/20 03:58:10;;;;;;;4.50;2.67;;;3.60;99.90;;;;;;5012869;28;20226;-71
2022/11/20 04:00:37;;;;;;;4.70;3.28;;;3.50;99.90;;;;;;5012099;28;20223;-70
2022/11/20 04:03:04;;;;;;;3.10;2.50;;;3.40;99.90;;;;;;5012536;28;20689;-71
2022/11/20 04:05:34;;;;;;;3.70;2.80;;;3.50;99.90;;;;;;5012545;28;20199;-72
2022/11/20 04:08:01;;;;;;;4.32;3.03;;;3.50;99.90;;;;;;5012539;28;20230;-71
2022/11/20 04:10:27;;;;;;;3.08;2.72;;;3.50;99.90;;;;;;5011873;28;20227;-71
2022/11/20 04:12:54;;;;;;;3.20;2.28;;;3.40;99.90;;;;;;5011645;28;20721;-70
2022/11/20 04:15:21;;;;;;;4.20;3.10;;;3.40;99.90;;;;;;5011742;28;20203;-71
2022/11/20 04:17:47;;;;;;;5.10;2.80;;;3.40;99.90;;;;;;5009460;28;20579;-71
2022/11/20 04:20:14;;;;;;;3.00;2.70;;;3.40;99.90;;;;;;5010970;28;20305;-70
2022/11/20 04:22:42;;;;;;;2.85;2.40;;;3.30;99.90;;;;;;5010750;28;20198;-71
2022/11/20 04:25:09;;;;;;;2.33;2.13;;;3.40;99.90;;;;;;5088116;23;20257;-67
2022/11/20 04:27:36;;;;;;;5.88;3.28;;;3.30;99.90;;;;;;5016238;28;20199;-67
2022/11/20 04:30:03;;;;;;;3.58;2.80;;;3.30;99.90;;;;;;5010708;28;20202;-68
2022/11/20 04:32:30;;;;;;;4.13;3.17;;;3.30;99.90;;;;;;5172210;22;20229;-70
2022/11/20 04:34:57;;;;;;;3.67;2.67;;;3.30;99.90;;;;;;5050750;28;20193;-69
2022/11/20 04:37:23;;;;;;;4.18;3.40;;;3.30;99.90;;;;;;5050832;28;20583;-69
2022/11/20 04:39:51;;;;;;;3.08;2.75;;;3.30;99.90;;;;;;5050433;28;20201;-69
2022/11/20 04:42:30;;;;;;;4.10;3.20;;;3.40;99.90;;;;;;5050286;28;20212;-69
2022/11/20 04:44:58;;;;;;;3.53;2.92;;;3.40;99.90;;;;;;5050533;28;20202;-69
2022/11/20 04:47:25;;;;;;;3.17;2.78;;;3.40;99.90;;;;;;5050574;28;20293;-68
2022/11/20 04:49:51;;;;;;;4.80;3.42;;;3.40;99.90;;;;;;5056726;28;20680;-69
2022/11/20 04:52:18;;;;;;;4.20;3.00;;;3.50;99.90;;;;;;5069711;28;20220;-69
2022/11/20 04:54:45;;;;;;;2.63;2.42;;;3.50;99.90;;;;;;5070690;28;20205;-69
2022/11/20 04:57:16;;;;;;;4.07;2.88;;;3.60;99.90;;;;;;5070295;28;20217;-69
2022/11/20 04:59:42;;;;;;;3.22;2.88;;;3.60;99.90;;;;;;5070637;28;20209;-69
2022/11/20 05:02:10;;;;;;;3.35;2.85;;;3.70;99.90;;;;;;5070068;28;20581;-69
2022/11/20 05:04:36;;;;;;;2.90;2.38;;;3.70;99.90;;;;;;5070571;28;20208;-69
2022/11/20 05:07:03;;;;;;;2.63;2.40;;;3.70;99.90;;;;;;5070375;28;20251;-69
2022/11/20 05:09:31;;;;;;;3.70;2.88;;;3.80;99.90;;;;;;5070112;28;20204;-68
2022/11/20 05:11:57;;;;;;;3.20;2.90;;;3.80;99.90;;;;;;5070044;28;20231;-67
2022/11/20 05:14:25;;;;;;;3.03;2.72;;;3.90;99.90;;;;;;5070022;28;20217;-69
2022/11/20 05:16:52;;;;;;;4.50;2.80;;;3.80;99.90;;;;;;5070443;28;20205;-69
2022/11/20 05:19:19;;;;;;;2.67;2.47;;;3.90;99.90;;;;;;5070010;28;20205;-69
2022/11/20 05:21:46;;;;;;;3.05;2.75;;;3.90;99.90;;;;;;5069675;28;20232;-69
2022/11/20 05:24:12;;;;;;;4.88;2.60;;;3.90;99.90;;;;;;5069972;28;20204;-69
2022/11/20 05:26:39;;;;;;;2.50;2.22;;;3.90;99.90;;;;;;5070223;28;20703;-69
2022/11/20 05:29:06;;;;;;;3.75;2.60;;;4.00;99.90;;;;;;5070138;28;20661;-69
2022/11/20 05:31:34;;;;;;;2.40;2.20;;;4.00;99.90;;;;;;5069277;28;20252;-69
2022/11/20 05:34:01;;;;;;;2.55;2.33;;;4.00;99.90;;;;;;5070238;28;20627;-69
2022/11/20 05:36:27;;;;;;;3.00;2.80;;;4.00;99.90;;;;;;5070018;28;20207;-68
2022/11/20 05:38:54;;;;;;;5.25;2.40;;;4.10;99.90;;;;;;5070265;28;20201;-68
2022/11/20 05:41:21;;;;;;;3.20;2.53;;;4.10;99.90;;;;;;5069179;28;20221;-69
2022/11/20 05:43:49;;;;;;;2.70;2.20;;;4.10;99.90;;;;;;5070036;28;20198;-68
2022/11/20 05:46:18;;;;;;;2.42;2.22;;;4.10;99.90;;;;;;5069944;28;20206;-69
2022/11/20 05:48:47;;;;;;;2.90;2.60;;;4.10;99.90;;;;;;5069562;28;20262;-69
2022/11/20 05:51:17;;;;;;;2.40;2.20;;;4.10;99.90;;;;;;5069206;28;20229;-68
2022/11/20 05:53:44;;;;;;;2.70;1.80;;;4.10;99.90;;;;;;5069795;28;20229;-68
2022/11/20 05:56:14;;;;;;;3.20;2.70;;;4.10;99.90;;;;;;5069983;28;20217;-68
2022/11/20 05:58:41;;;;;;;2.92;2.65;;;4.10;99.90;;;;;;5072929;28;20216;-68
2022/11/20 06:01:10;;;;;;;2.72;2.40;;;4.10;99.90;;;;;;5072794;28;20229;-69
2022/11/20 06:03:37;;;;;;;3.08;2.33;;;4.10;99.90;;;;;;5073583;28;20202;-68
2022/11/20 06:06:06;;;;;;;2.40;1.90;;;4.20;99.90;;;;;;5073174;28;20208;-69
2022/11/20 06:08:34;;;;;;;1.77;1.67;;;4.20;99.90;;;;;;5073509;28;20300;-68
2022/11/20 06:11:04;;;;;;;3.67;2.00;;;4.20;99.90;;;;;;5072426;28;20243;-69
2022/11/20 06:13:31;;;;;;;3.67;2.20;;;4.20;99.90;;;;;;5073476;28;20229;-69
2022/11/20 06:15:58;;;;;;;2.75;2.55;;;4.20;99.90;;;;;;5072925;28;20600;-68
2022/11/20 06:18:27;;;;;;;8.02;2.30;;;4.30;99.90;;;;;;5073312;28;20209;-69
2022/11/20 06:21:01;;;;;;;2.25;2.05;;;4.30;99.90;;;;;;5072287;28;20221;-68
2022/11/20 06:23:30;;;;;;;3.65;1.95;;;4.40;99.90;;;;;;5073343;28;20254;-68
2022/11/20 06:25:57;;;;;;;2.05;1.85;;;4.40;99.90;;;;;;5073082;28;20578;-68
2022/11/20 06:28:23;;;;;;;2.13;1.88;;;4.40;99.90;;;;;;5073012;28;20205;-68
2022/11/20 06:30:50;;;;;;;3.30;2.13;;;4.40;99.90;;;;;;5072296;28;20225;-69
2022/11/20 06:33:17;;;;;;;2.50;2.30;;;4.50;99.90;;;;;;5072404;28;20770;-68
2022/11/20 06:35:44;;;;;;;4.07;2.00;;;4.50;99.90;;;;;;5072754;28;20205;-69
2022/11/20 06:38:10;;;;;;;3.63;2.15;;;4.50;99.90;;;;;;5072471;28;20668;-68
2022/11/20 06:40:41;;;;;;;3.60;2.40;;;4.50;99.90;;;;;;5072170;28;20685;-67
2022/11/20 06:43:08;;;;;;;2.60;2.00;;;4.50;99.90;;;;;;5072438;28;20201;-67
2022/11/20 06:45:35;;;;;;;2.50;2.30;;;4.50;99.90;;;;;;5072957;28;20205;-68
2022/11/20 06:48:01;;;;;;;2.72;2.15;;;4.60;99.90;;;;;;5072960;28;20215;-67
2022/11/20 06:50:28;;;;;;;5.07;2.10;;;4.60;99.90;;;;;;5072185;28;20216;-68
2022/11/20 06:52:55;;;;;;;2.35;1.80;;;4.60;99.90;;;;;;5072661;28;20204;-69
2022/11/20 06:55:22;;;;;;;3.30;2.13;;;4.60;99.90;;;;;;5066288;28;20200;-68
2022/11/20 06:57:51;;;;;;;2.47;2.17;;;4.60;99.90;;;;;;5069389;28;20201;-67
2022/11/20 07:00:18;;;;;;;2.40;2.20;;;4.70;99.90;;;;;;5068506;28;20227;-68
2022/11/20 07:02:45;;;;;;;2.10;1.90;;;4.70;99.90;;;;;;5069137;28;20208;-67
2022/11/20 07:05:12;;;;;;;3.55;2.33;;;4.70;99.90;;;;;;5069001;28;20209;-68
2022/11/20 07:07:38;;;;;;;2.22;2.03;;;4.70;99.90;;;;;;5069113;28;20202;-67
2022/11/20 07:10:06;;;;;;;1.77;1.60;;;4.70;99.90;;;;;;5068864;28;20221;-67
2022/11/20 07:12:33;;;;;;;2.88;2.00;;;4.70;99.90;;;;;;5068018;28;20205;-68
2022/11/20 07:15:01;;;;;;;6.68;2.53;;;4.60;99.90;;;;;;5068894;28;20232;-67
2022/11/20 07:17:28;;;;;;;3.28;1.92;;;4.70;99.90;;;;;;5068550;28;20598;-69
2022/11/20 07:19:54;;;;;;;2.55;2.03;;;4.70;99.90;;;;;;5068627;28;20201;-67
2022/11/20 07:22:21;;;;;;;1.98;1.60;;;4.70;99.90;;;;;;5068266;28;20200;-67
2022/11/20 07:24:48;;;;;;;2.30;2.10;;;4.70;99.90;;;;;;5069711;28;20264;-66
2022/11/20 07:27:15;;;;;;;2.97;2.28;;;4.80;99.90;;;;;;5068372;28;20201;-68
2022/11/20 07:29:42;;;;;;;4.55;2.50;;;4.80;99.90;;;;;;5068774;28;20209;-68
2022/11/20 07:32:10;;;;;;;2.10;1.83;;;4.90;99.90;;;;;;5068220;28;20272;-66
2022/11/20 07:34:36;;;;;;;2.92;1.60;;;4.90;99.90;;;;;;5068129;28;20643;-66
2022/11/20 07:37:03;;;;;;;1.98;1.80;;;4.90;99.90;;;;;;5068413;28;20555;-67
2022/11/20 07:39:30;;;;;;;2.05;1.40;;;4.90;99.90;;;;;;5067872;28;20208;-66
2022/11/20 07:41:56;;;;;;;2.00;1.83;;;4.90;99.90;;;;;;5067681;28;20766;-67
2022/11/20 07:44:23;;;;;;;2.15;1.60;;;5.00;99.90;;;;;;5068034;28;20208;-68
2022/11/20 07:46:50;;;;;;;3.10;2.00;;;5.00;99.90;;;;;;5069470;28;20213;-68
2022/11/20 07:49:18;;;;;;;1.60;1.50;;;5.00;99.90;;;;;;5068400;28;20201;-68
2022/11/20 07:51:45;;;;;;;2.67;1.77;;;5.00;99.90;;;;;;5068310;28;20571;-68
2022/11/20 07:54:11;;;;;;;1.75;1.65;;;5.10;99.90;;;;;;5071037;28;20225;-68
2022/11/20 07:56:38;;;;;;;1.73;1.63;;;5.30;99.90;;;;;;5071084;28;20211;-67
2022/11/20 07:59:05;;;;;;;2.10;1.90;;;5.40;99.90;;;;;;5071531;28;20574;-69
2022/11/20 08:01:32;;;;;;;2.50;2.10;;;5.40;99.90;;;;;;5068424;28;20230;-69
2022/11/20 08:03:58;;;;;;;2.90;2.03;;;5.40;99.90;;;;;;5053481;28;20713;-68
2022/11/20 08:06:27;;;;;;;3.90;2.20;;;5.50;99.90;;;;;;5051163;28;20221;-68
2022/11/20 08:08:53;;;;;;;2.30;1.95;;;5.50;99.90;;;;;;5050934;28;20300;-68
2022/11/20 08:14:13;;;;;;;1.70;1.60;;;5.50;99.90;;;;;;5051141;28;20225;-68
2022/11/20 08:16:40;;;;;;;2.58;1.92;;;5.60;99.90;;;;;;5050733;28;20209;-66
2022/11/20 08:19:07;;;;;;;1.40;1.27;;;5.50;99.90;;;;;;5050404;28;20497;-68
2022/11/20 08:21:36;;;;;;;1.55;1.45;;;5.60;99.90;;;;;;5049309;28;20313;-68
2022/11/20 08:24:03;;;;;;;1.95;1.77;;;5.60;99.90;;;;;;5050765;28;20214;-68
2022/11/20 08:26:30;;;;;;;1.83;1.63;;;5.60;99.90;;;;;;5050581;28;20560;-66
2022/11/20 08:28:57;;;;;;;1.88;1.70;;;5.60;99.90;;;;;;5050487;28;20205;-68
2022/11/20 08:31:26;;;;;;;3.40;1.45;;;5.70;99.90;;;;;;5049284;28;20739;-67
2022/11/20 08:33:53;;;;;;;1.95;1.75;;;5.70;99.90;;;;;;5050308;28;20264;-67
2022/11/20 08:36:21;;;;;;;1.55;1.45;;;5.70;99.90;;;;;;5050333;28;20212;-67
2022/11/20 08:38:50;;;;;;;2.20;2.00;;;5.80;99.90;;;;;;5050180;28;20210;-67
2022/11/20 08:41:26;;;;;;;2.10;1.90;;;5.80;99.90;;;;;;5066576;28;20597;-67
2022/11/20 08:43:55;;;;;;;1.70;1.60;;;5.80;99.90;;;;;;5069750;28;20251;-68
2022/11/20 08:46:23;;;;;;;1.50;1.40;;;5.90;99.90;;;;;;5069985;28;20215;-68
2022/11/20 08:48:49;;;;;;;2.60;1.67;;;5.90;99.90;;;;;;5069917;28;20208;-68
2022/11/20 08:51:17;;;;;;;1.58;1.40;;;6.00;99.90;;;;;;5069613;28;20598;-68
2022/11/20 08:53:44;;;;;;;2.13;1.60;;;6.10;99.90;;;;;;5070230;28;20319;-69
2022/11/20 08:56:12;;;;;;;2.08;1.35;;;6.20;99.90;;;;;;5070620;28;20201;-69
2022/11/20 08:58:39;;;;;;;1.85;1.40;;;6.30;99.90;;;;;;5070537;28;20750;-68
2022/11/20 09:01:06;;;;;;;1.70;1.45;;;6.40;99.90;;;;;;5069091;28;20222;-67
2022/11/20 09:03:33;;;;;;;2.25;1.73;;;6.60;99.90;;;;;;5070511;28;20214;-68
2022/11/20 09:06:01;;;;;;;1.52;1.30;;;6.70;99.90;;;;;;5070524;28;20205;-68
2022/11/20 09:08:28;;;;;;;1.75;1.30;;;6.90;99.90;;;;;;5070456;28;20239;-68
2022/11/20 09:10:56;;;;;;;1.58;1.15;;;7.00;99.90;;;;;;5069282;28;20221;-68
2022/11/20 09:13:25;;;;;;;2.00;1.23;;;7.00;99.90;;;;;;5070075;28;20616;-68
2022/11/20 09:15:56;;;;;;;1.92;1.65;;;7.10;99.90;;;;;;5069689;28;20252;-68
2022/11/20 09:18:23;;;;;;;2.75;1.23;;;7.10;99.90;;;;;;5069943;28;20261;-68
2022/11/20 09:20:50;;;;;;;1.58;1.40;;;6.90;99.90;;;;;;5068981;28;20228;-68
2022/11/20 09:23:18;;;;;;;2.85;0.90;;;6.80;99.90;;;;;;5069487;28;20209;-68
2022/11/20 09:25:45;;;;;;;1.65;1.35;;;6.70;99.90;;;;;;5069753;28;20197;-68
2022/11/20 09:28:11;;;;;;;1.45;1.30;;;6.70;99.90;;;;;;5069689;28;20222;-68
2022/11/20 09:30:40;;;;;;;1.20;1.10;;;6.80;99.90;;;;;;5069445;28;20241;-68
2022/11/20 09:33:07;;;;;;;1.10;1.00;;;6.80;99.90;;;;;;5071872;28;20213;-68
2022/11/20 09:35:34;;;;;;;1.63;1.35;;;6.80;99.90;;;;;;5073643;28;20229;-68
2022/11/20 09:38:06;;;;;;;2.38;1.10;;;6.70;99.90;;;;;;5073440;28;20641;-69
2022/11/20 09:40:35;;;;;;;1.00;0.90;;;6.70;99.90;;;;;;5072417;28;20228;-68
2022/11/20 09:43:08;;;;;;;1.45;1.35;;;6.70;99.90;;;;;;5072157;28;20209;-68
2022/11/20 09:45:51;;;;;;;1.23;1.13;;;6.60;99.90;;;;;;5072326;28;20193;-67
2022/11/20 09:48:30;;;;;;;1.10;1.00;;;6.50;99.90;;;;;;5071946;28;20233;-67
2022/11/20 09:51:06;;;;;;;1.00;0.90;;;6.50;99.90;;;;;;5070631;28;20220;-68
2022/11/20 09:53:43;;;;;;;0.98;0.88;;;6.50;99.90;;;;;;5072865;28;20215;-68
2022/11/20 09:56:12;;;;;;;1.25;1.00;;;6.50;99.90;;;;;;5072996;28;20258;-67
2022/11/20 09:58:42;;;;;;;1.20;1.02;;;6.50;99.90;;;;;;5072415;28;20219;-68
2022/11/20 10:01:14;;;;;;;2.25;1.10;;;6.50;99.90;;;;;;5072003;28;20224;-67
2022/11/20 10:03:51;;;;;;;1.00;0.90;;;6.50;99.90;;;;;;5071677;28;20209;-67
2022/11/20 10:06:30;;;;;;;1.02;0.90;;;6.50;99.90;;;;;;5072427;28;20482;-68
2022/11/20 10:09:07;;;;;;;1.40;0.80;;;6.50;99.90;;;;;;5070859;28;20277;-68
2022/11/20 10:11:43;;;;;;;1.27;1.17;;;6.50;99.90;;;;;;5072118;28;20235;-68
2022/11/20 10:14:18;;;;;;;1.00;0.82;;;6.40;99.90;;;;;;5072611;28;20220;-68
2022/11/20 10:16:55;;;;;;;1.10;1.00;;;6.40;99.90;;;;;;5073548;28;20207;-68
2022/11/20 10:19:43;;;;;;;1.02;0.93;;;6.40;99.90;;;;;;5073238;28;20208;-68
2022/11/20 10:22:19;;;;;;;1.00;0.90;;;6.40;99.90;;;;;;5068465;28;20231;-67
2022/11/20 10:24:56;;;;;;;1.15;1.02;;;6.50;99.90;;;;;;5083997;22;20214;-92
2022/11/20 10:27:38;;;;;;;1.20;1.10;;;6.60;99.90;;;;;;5043263;28;20202;-93
2022/11/20 10:30:10;;;;;;;1.00;0.80;;;6.60;99.90;;;;;;5035186;28;20699;-93
2022/11/20 10:32:41;;;;;;;1.25;1.00;;;6.70;99.90;;;;;;5034887;28;20211;-91
2022/11/20 10:35:20;;;;;;;1.00;0.90;;;6.70;99.90;;;;;;5035395;28;20240;-91
2022/11/20 10:37:52;;;;;;;1.42;1.33;;;6.80;99.90;;;;;;5042532;28;20202;-91
2022/11/20 10:40:25;;;;;;;1.23;1.00;;;6.80;99.90;;;;;;5041568;28;20214;-92
2022/11/20 10:42:56;;;;;;;0.88;0.80;;;6.80;99.90;;;;;;5037768;28;20210;-91
2022/11/20 10:45:43;;;;;;;0.90;0.75;;;6.80;99.90;;;;;;5041564;28;20731;-92
2022/11/20 10:48:17;;;;;;;0.80;0.70;;;6.90;99.90;;;;;;5040793;28;20293;-92
2022/11/20 10:51:00;;;;;;;1.40;1.30;;;6.90;99.90;;;;;;5039999;28;20208;-92
2022/11/20 10:53:44;;;;;;;1.52;1.10;;;6.80;99.90;;;;;;5041036;28;20261;-92
2022/11/20 10:56:20;;;;;;;2.72;0.98;;;6.70;99.90;;;;;;5040191;28;20294;-92
2022/11/20 10:58:55;;;;;;;1.30;1.08;;;6.70;99.90;;;;;;5039805;28;20210;-92
2022/11/20 11:01:23;;;;;;;1.20;1.08;;;6.70;99.90;;;;;;5039028;28;20293;-91
2022/11/20 11:03:52;;;;;;;1.08;0.90;;;6.60;99.90;;;;;;5039511;28;20309;-92
2022/11/20 11:06:27;;;;;;;1.55;1.08;;;6.60;99.90;;;;;;5039554;28;20222;-91
2022/11/20 11:08:59;;;;;;;1.42;1.15;;;6.60;99.90;;;;;;5039270;28;20202;-91
2022/11/20 11:11:30;;;;;;;1.10;1.00;;;6.60;99.90;;;;;;5038339;28;20283;-92
2022/11/20 11:14:06;;;;;;;1.15;0.95;;;6.60;99.90;;;;;;5038966;28;20210;-91
2022/11/20 11:16:33;;;;;;;0.80;0.80;;;6.70;99.90;;;;;;5038421;28;20232;-91
2022/11/20 11:19:07;;;;;;;1.33;1.00;;;6.80;99.90;;;;;;5038983;28;20228;-91
2022/11/20 11:21:35;;;;;;;1.10;0.95;;;6.80;99.90;;;;;;5038246;28;20228;-92
2022/11/20 11:24:04;;;;;;;1.65;1.30;;;6.80;99.90;;;;;;5038654;28;20206;-91
2022/11/20 11:26:31;;;;;;;1.40;1.17;;;6.80;99.90;;;;;;5039407;28;20257;-91
2022/11/20 11:28:59;;;;;;;1.30;1.20;;;6.90;99.90;;;;;;5037666;28;20274;-91
2022/11/20 11:31:27;;;;;;;1.65;1.55;;;7.00;99.90;;;;;;5038661;28;20611;-93
2022/11/20 11:34:06;;;;;;;1.58;1.20;;;7.20;99.90;;;;;;5039224;28;20226;-93
2022/11/20 11:36:35;;;;;;;1.15;1.05;;;7.50;99.90;;;;;;5038425;28;20229;-92
2022/11/20 11:39:03;;;;;;;2.95;1.40;;;8.30;99.90;;;;;;5038294;28;20658;-92
2022/11/20 11:41:34;;;;;;;1.40;1.30;;;9.70;99.90;;;;;;5038053;28;20229;-92
2022/11/20 11:47:01;;;;;;;1.20;1.10;;;12.60;99.90;;;;;;5034803;28;20725;-92
2022/11/20 11:49:29;;;;;;;1.33;1.23;;;14.00;99.90;;;;;;5033333;28;20237;-93
2022/11/20 11:52:05;;;;;;;0.98;0.88;;;15.20;99.90;;;;;;5033031;28;20301;-92
2022/11/20 11:54:39;;;;;;;2.40;1.20;;;16.10;99.90;;;;;;5032599;28;20460;-92
2022/11/20 11:57:13;;;;;;;1.27;1.10;;;16.20;99.90;;;;;;5033538;28;20210;-93
2022/11/20 11:59:51;;;;;;;2.00;0.85;;;15.80;99.90;;;;;;5034553;28;20559;-92
2022/11/20 12:02:30;;;;;;;1.30;1.20;;;14.90;99.90;;;;;;5035246;28;20221;-93
2022/11/20 12:05:05;;;;;;;1.20;1.05;;;14.30;99.90;;;;;;5034249;28;20222;-92
2022/11/20 12:07:41;;;;;;;1.10;1.00;;;13.40;99.90;;;;;;5033993;28;20613;-93
2022/11/20 12:10:20;;;;;;;1.75;1.20;;;13.20;99.90;;;;;;5034364;28;20218;-92
2022/11/20 12:12:53;;;;;;;2.05;1.10;;;12.80;99.90;;;;;;5033017;28;20213;-93
2022/11/20 12:15:30;;;;;;;1.20;1.10;;;12.20;99.90;;;;;;5033139;28;20226;-92
2022/11/20 12:17:57;;;;;;;2.65;1.50;;;11.90;99.90;;;;;;5033571;28;20217;-93
2022/11/20 12:20:29;;;;;;;1.30;1.20;;;11.60;99.90;;;;;;5036338;28;20210;-92
2022/11/20 12:23:03;;;;;;;1.30;1.15;;;11.50;99.90;;;;;;5035458;28;20210;-92
2022/11/20 12:25:32;;;;;;;1.90;1.10;;;11.70;99.90;;;;;;5036159;28;20232;-91
2022/11/20 12:28:19;;;;;;;1.55;1.02;;;11.80;99.90;;;;;;5036387;28;20216;-92
2022/11/20 12:30:58;;;;;;;1.50;1.00;;;11.60;99.90;;;;;;5036396;28;20344;-92
2022/11/20 12:33:49;;;;;;;1.23;0.90;;;11.30;99.90;;;;;;5036846;28;20217;-92
2022/11/20 12:36:29;;;;;;;1.80;1.10;;;11.00;99.90;;;;;;5036240;28;20229;-93
2022/11/20 12:39:14;;;;;;;1.02;0.93;;;10.70;99.90;;;;;;5037119;28;20275;-92
2022/11/20 12:45:15;;;;;;;1.42;1.00;;;9.90;99.90;;;;;;5050274;28;20221;-92
2022/11/20 12:47:58;;;;;;;1.52;0.90;;;9.40;99.90;;;;;;5037417;28;20206;-92
2022/11/20 12:50:34;;;;;;;1.83;1.02;;;9.00;99.90;;;;;;5036589;28;20209;-93
2022/11/20 12:53:06;;;;;;;1.13;0.98;;;8.80;99.90;;;;;;5041215;28;20244;-92
2022/11/20 12:55:43;;;;;;;1.20;1.02;;;8.70;99.90;;;;;;5055536;28;20238;-93
2022/11/20 12:58:18;;;;;;;1.55;0.93;;;9.00;99.90;;;;;;5054559;28;20269;-92
2022/11/20 13:00:57;;;;;;;1.33;0.90;;;9.30;99.90;;;;;;5045233;28;20208;-93
2022/11/20 13:03:43;;;;;;;1.10;0.95;;;9.60;99.90;;;;;;5041286;28;20701;-93
2022/11/20 13:06:18;;;;;;;0.95;0.85;;;9.90;99.90;;;;;;5042739;28;20255;-93
2022/11/20 13:08:53;;;;;;;1.30;1.10;;;10.10;99.90;;;;;;5049325;28;20201;-92
2022/11/20 13:11:26;;;;;;;1.00;0.80;;;9.90;99.90;;;;;;5049384;28;20288;-93
2022/11/20 13:14:14;;;;;;;1.35;1.20;;;9.70;99.90;;;;;;5052196;28;20208;-93
2022/11/20 13:16:49;;;;;;;1.48;1.20;;;9.50;99.90;;;;;;5051699;28;20268;-92
2022/11/20 13:19:17;;;;;;;1.85;1.15;;;9.20;99.90;;;;;;5054410;28;20635;-93